Time;durP1;ratioP1;P1;durP2;ratioP2;P2;SDS_P1;SDS_P2;PMS_P1;PMS_P2;Temp;Humidity;BMP_temperature;BMP_pressure;BME280_temperature;BME280_humidity;BME280_pressure;Samples;Min_cycle;Max_cycle;Signal;HPM_P1;HPM_P2
2022/05/04 00:01:32;;;;;;;9.00;5.60;;;13.30;89.30;;;;;;4991785;28;20436;-43
2022/05/04 00:03:59;;;;;;;9.43;7.30;;;13.40;90.10;;;;;;4991892;28;20436;-42
2022/05/04 00:06:27;;;;;;;7.50;6.60;;;13.40;90.00;;;;;;4991940;28;20436;-42
2022/05/04 00:08:54;;;;;;;8.70;5.43;;;13.20;90.20;;;;;;4991248;28;20464;-43
2022/05/04 00:11:20;;;;;;;8.03;6.63;;;13.60;90.60;;;;;;4990376;28;20606;-44
2022/05/04 00:13:47;;;;;;;14.60;10.20;;;13.20;90.50;;;;;;4991891;28;20492;-43
2022/05/04 00:16:15;;;;;;;7.27;6.53;;;12.70;90.40;;;;;;4991949;28;20983;-42
2022/05/04 00:18:41;;;;;;;9.87;8.67;;;12.90;90.70;;;;;;4991021;28;20940;-43
2022/05/04 00:21:08;;;;;;;7.63;6.60;;;13.10;90.80;;;;;;4991629;28;20805;-42
2022/05/04 00:23:35;;;;;;;7.17;6.10;;;12.90;90.90;;;;;;4991776;28;20444;-44
2022/05/04 00:26:01;;;;;;;8.37;6.20;;;12.50;90.90;;;;;;4991325;28;20433;-43
2022/05/04 00:28:29;;;;;;;6.47;5.87;;;12.90;91.20;;;;;;4991767;28;20447;-42
2022/05/04 00:30:56;;;;;;;10.87;5.97;;;13.00;91.30;;;;;;4991719;28;20546;-42
2022/05/04 00:33:23;;;;;;;7.70;6.60;;;13.10;91.70;;;;;;4991693;28;20484;-42
2022/05/04 00:35:50;;;;;;;6.63;5.80;;;12.90;92.00;;;;;;4991812;28;20433;-42
2022/05/04 00:38:17;;;;;;;7.20;6.03;;;13.20;92.20;;;;;;4990135;28;20450;-42
2022/05/04 00:40:43;;;;;;;7.20;6.47;;;12.60;92.00;;;;;;4991106;28;20463;-43
2022/05/04 00:43:21;;;;;;;10.30;6.97;;;12.80;92.30;;;;;;4991499;28;21007;-42
2022/05/04 00:45:48;;;;;;;8.17;6.13;;;12.70;92.50;;;;;;4991469;28;20464;-42
2022/05/04 00:48:15;;;;;;;7.10;5.90;;;12.80;92.50;;;;;;4991117;28;20445;-42
2022/05/04 00:50:44;;;;;;;6.93;6.20;;;13.20;92.80;;;;;;4990733;28;20466;-43
2022/05/04 00:53:11;;;;;;;9.03;6.87;;;12.70;92.70;;;;;;4989729;28;20495;-42
2022/05/04 00:55:39;;;;;;;8.50;7.40;;;12.50;92.50;;;;;;4991045;28;20475;-43
2022/05/04 01:00:51;;;;;;;8.20;6.60;;;12.50;92.70;;;;;;4991165;28;20446;-43
2022/05/04 01:03:18;;;;;;;10.40;8.10;;;12.60;92.90;;;;;;4991118;28;20447;-43
2022/05/04 01:05:46;;;;;;;8.53;6.93;;;12.50;93.20;;;;;;4990919;28;20443;-44
2022/05/04 01:08:13;;;;;;;8.50;6.77;;;12.60;93.30;;;;;;4990885;28;20436;-44
2022/05/04 01:10:40;;;;;;;12.47;7.50;;;12.20;93.40;;;;;;4990321;28;20491;-44
2022/05/04 01:13:06;;;;;;;6.67;6.00;;;12.90;93.50;;;;;;4990780;28;20479;-42
2022/05/04 01:15:33;;;;;;;11.23;7.53;;;12.40;93.60;;;;;;4990972;28;20933;-43
2022/05/04 01:18:00;;;;;;;7.83;6.87;;;12.20;93.50;;;;;;4990692;28;20445;-45
2022/05/04 01:20:27;;;;;;;7.57;6.73;;;12.20;93.80;;;;;;4990188;28;20472;-41
2022/05/04 01:22:55;;;;;;;8.70;6.80;;;12.80;94.30;;;;;;4990612;28;20440;-42
2022/05/04 01:25:22;;;;;;;9.47;6.90;;;12.70;94.50;;;;;;4990656;28;20466;-42
2022/05/04 01:27:48;;;;;;;8.53;7.63;;;12.10;94.40;;;;;;4990558;28;20858;-43
2022/05/04 01:30:15;;;;;;;8.70;7.43;;;12.10;94.40;;;;;;4990067;28;20454;-43
2022/05/04 01:32:42;;;;;;;10.17;8.10;;;12.30;94.90;;;;;;4990471;28;20446;-41
2022/05/04 01:35:09;;;;;;;9.40;7.97;;;12.40;95.00;;;;;;4990316;28;20493;-44
2022/05/04 01:37:35;;;;;;;9.60;7.67;;;12.10;94.90;;;;;;4989145;28;20527;-42
2022/05/04 01:40:04;;;;;;;7.60;6.90;;;12.30;95.20;;;;;;4989971;28;20467;-41
2022/05/04 01:42:30;;;;;;;8.70;7.47;;;12.00;95.40;;;;;;4990294;28;20442;-43
2022/05/04 01:44:57;;;;;;;34.33;8.77;;;11.90;95.50;;;;;;4990263;28;20447;-41
2022/05/04 01:47:23;;;;;;;9.50;7.50;;;11.90;95.70;;;;;;4990288;28;20449;-42
2022/05/04 01:49:50;;;;;;;8.13;7.23;;;12.10;95.70;;;;;;4989762;28;20466;-42
2022/05/04 01:52:17;;;;;;;10.07;8.27;;;12.00;95.80;;;;;;4990120;28;20927;-44
2022/05/04 01:54:43;;;;;;;11.77;8.33;;;11.90;96.20;;;;;;4990037;28;20491;-44
2022/05/04 01:57:11;;;;;;;9.20;8.00;;;12.40;96.50;;;;;;4990111;28;20805;-43
2022/05/04 01:59:38;;;;;;;8.33;7.40;;;11.80;96.30;;;;;;4988282;28;20474;-42
2022/05/04 02:02:07;;;;;;;10.63;8.40;;;11.80;96.70;;;;;;4990042;28;20517;-42
2022/05/04 02:04:34;;;;;;;9.73;7.73;;;12.10;97.20;;;;;;4989980;28;20442;-43
2022/05/04 02:07:01;;;;;;;8.03;7.23;;;12.30;97.30;;;;;;4990050;28;20429;-42
2022/05/04 02:09:28;;;;;;;10.53;8.23;;;11.40;97.10;;;;;;4989711;28;20466;-43
2022/05/04 02:11:55;;;;;;;9.13;8.00;;;11.60;97.50;;;;;;4989947;28;20440;-42
2022/05/04 02:14:23;;;;;;;8.90;8.00;;;11.00;97.30;;;;;;4989822;28;21019;-44
2022/05/04 02:16:49;;;;;;;9.50;8.50;;;12.00;98.00;;;;;;4989793;28;20431;-45
2022/05/04 02:19:16;;;;;;;8.30;7.40;;;11.50;97.60;;;;;;4989241;28;20480;-43
2022/05/04 02:21:43;;;;;;;9.47;7.80;;;11.30;97.80;;;;;;4989961;28;20447;-41
2022/05/04 02:24:09;;;;;;;8.87;7.90;;;11.50;98.00;;;;;;4989961;28;20443;-42
2022/05/04 02:26:36;;;;;;;15.80;7.37;;;11.40;98.00;;;;;;4988380;28;20449;-41
2022/05/04 02:29:02;;;;;;;13.20;8.60;;;11.80;98.50;;;;;;4989350;28;20464;-42
2022/05/04 02:31:30;;;;;;;9.83;8.67;;;11.40;98.50;;;;;;4988299;28;20446;-42
2022/05/04 02:33:57;;;;;;;15.47;9.13;;;11.40;98.50;;;;;;4989675;28;21004;-41
2022/05/04 02:39:08;;;;;;;11.27;8.30;;;11.40;98.70;;;;;;4989139;28;20831;-44
2022/05/04 02:41:34;;;;;;;10.23;8.77;;;11.10;98.80;;;;;;4989494;28;20438;-42
2022/05/04 02:44:01;;;;;;;13.10;9.27;;;11.20;98.80;;;;;;4989354;28;20439;-43
2022/05/04 02:46:31;;;;;;;12.63;8.67;;;11.30;99.20;;;;;;4989261;28;20524;-44
2022/05/04 02:48:58;;;;;;;12.77;8.90;;;11.00;99.20;;;;;;4991444;28;20962;-41
2022/05/04 02:51:24;;;;;;;11.10;9.30;;;11.70;99.50;;;;;;4993316;28;20445;-42
2022/05/04 02:53:51;;;;;;;10.53;9.43;;;11.00;99.30;;;;;;4992991;28;20476;-42
2022/05/04 02:56:18;;;;;;;11.87;8.53;;;11.30;99.60;;;;;;4992927;28;20465;-42
2022/05/04 02:58:45;;;;;;;10.40;8.97;;;11.30;99.80;;;;;;4992266;28;20442;-45
2022/05/04 03:03:59;;;;;;;11.67;9.70;;;11.20;99.90;;;;;;4992766;28;20471;-41
2022/05/04 03:06:26;;;;;;;12.33;8.83;;;11.30;99.90;;;;;;4992717;28;20433;-41
2022/05/04 03:08:52;;;;;;;11.67;9.30;;;11.80;99.90;;;;;;4992088;28;20986;-43
2022/05/04 03:14:03;;;;;;;14.30;9.93;;;10.90;99.90;;;;;;4992503;28;20834;-42
2022/05/04 03:16:30;;;;;;;17.30;10.30;;;11.50;99.90;;;;;;4992483;28;20443;-41
2022/05/04 03:18:56;;;;;;;20.77;10.23;;;11.00;99.90;;;;;;4991926;28;20476;-42
2022/05/04 03:21:24;;;;;;;11.10;9.17;;;10.50;99.90;;;;;;4992434;28;20436;-45
2022/05/04 03:23:51;;;;;;;15.20;9.27;;;10.90;99.90;;;;;;4992513;28;20430;-42
2022/05/04 03:26:18;;;;;;;16.40;9.80;;;11.10;99.90;;;;;;4992477;28;20431;-43
2022/05/04 03:28:45;;;;;;;21.03;10.30;;;11.50;99.90;;;;;;4990443;28;20482;-43
2022/05/04 03:31:12;;;;;;;14.03;10.63;;;11.00;99.90;;;;;;4992416;28;20434;-43
2022/05/04 03:33:38;;;;;;;13.60;9.97;;;10.90;99.90;;;;;;4992286;28;20438;-41
2022/05/04 03:36:06;;;;;;;16.97;10.90;;;11.10;99.90;;;;;;4991994;28;20441;-41
2022/05/04 03:38:34;;;;;;;18.23;10.87;;;11.00;99.90;;;;;;4991694;28;20438;-41
2022/05/04 03:41:01;;;;;;;20.60;11.10;;;10.90;99.90;;;;;;4992248;28;20841;-41
2022/05/04 03:43:27;;;;;;;17.07;10.10;;;11.40;99.90;;;;;;4991979;28;20433;-42
2022/05/04 03:45:54;;;;;;;22.93;11.20;;;11.40;99.90;;;;;;4992265;28;20427;-43
2022/05/04 03:48:21;;;;;;;15.60;10.17;;;11.00;99.90;;;;;;4991985;28;20438;-43
2022/05/04 03:50:48;;;;;;;20.07;10.73;;;11.20;99.90;;;;;;4992115;28;20977;-44
2022/05/04 03:53:14;;;;;;;20.30;10.17;;;11.20;99.90;;;;;;4992129;28;20471;-42
2022/05/04 03:55:43;;;;;;;17.43;10.90;;;11.10;99.90;;;;;;4991959;28;20481;-41
2022/05/04 03:58:10;;;;;;;15.07;11.27;;;11.00;99.90;;;;;;4991953;28;20430;-45
2022/05/04 04:00:36;;;;;;;18.90;12.07;;;11.20;99.90;;;;;;4990949;28;20963;-43
2022/05/04 04:03:03;;;;;;;13.23;10.43;;;10.90;99.90;;;;;;4991970;28;20941;-42
2022/05/04 04:05:30;;;;;;;18.80;11.40;;;11.10;99.90;;;;;;4991751;28;20973;-42
2022/05/04 04:07:56;;;;;;;12.27;9.90;;;10.70;99.90;;;;;;4992123;28;20944;-44
2022/05/04 04:10:23;;;;;;;16.27;11.27;;;11.20;99.90;;;;;;4991558;28;20458;-42
2022/05/04 04:12:51;;;;;;;18.80;11.33;;;11.50;99.90;;;;;;4991724;28;20451;-43
2022/05/04 04:15:17;;;;;;;20.23;11.50;;;11.20;99.90;;;;;;4991636;28;20490;-42
2022/05/04 04:17:44;;;;;;;19.50;11.50;;;11.20;99.90;;;;;;4991726;28;20431;-42
2022/05/04 04:22:55;;;;;;;15.93;10.73;;;11.30;99.90;;;;;;4992415;28;20442;-45
2022/05/04 04:25:22;;;;;;;12.13;10.20;;;11.30;99.90;;;;;;4992871;28;20807;-46
2022/05/04 04:27:48;;;;;;;13.33;10.47;;;11.40;99.90;;;;;;4992656;28;20445;-45
2022/05/04 04:30:17;;;;;;;20.13;11.33;;;11.10;99.90;;;;;;4992432;28;20462;-45
2022/05/04 04:32:43;;;;;;;15.80;10.87;;;11.40;99.90;;;;;;4991777;28;20788;-45
2022/05/04 04:35:10;;;;;;;12.30;10.77;;;11.20;99.90;;;;;;4992298;28;20481;-44
2022/05/04 04:37:37;;;;;;;13.47;11.60;;;11.70;99.90;;;;;;4992027;28;20811;-45
2022/05/04 04:40:04;;;;;;;22.53;11.53;;;11.70;99.90;;;;;;4991222;28;20465;-45
2022/05/04 04:42:31;;;;;;;13.90;11.00;;;11.60;99.90;;;;;;4991624;28;20950;-45
2022/05/04 04:44:57;;;;;;;23.20;13.03;;;11.30;99.90;;;;;;4991881;28;20439;-44
2022/05/04 04:47:26;;;;;;;22.77;12.70;;;12.00;99.90;;;;;;4993030;28;20880;-44
2022/05/04 04:49:55;;;;;;;19.93;11.50;;;12.00;99.90;;;;;;4991750;28;20455;-44
2022/05/04 04:52:23;;;;;;;20.17;11.07;;;12.60;99.90;;;;;;4991786;28;20536;-45
2022/05/04 04:54:50;;;;;;;18.70;11.23;;;12.20;99.90;;;;;;4991484;28;20474;-46
2022/05/04 04:57:17;;;;;;;16.53;11.47;;;12.30;99.90;;;;;;4992315;28;20435;-46
2022/05/04 04:59:44;;;;;;;17.63;11.20;;;12.40;99.90;;;;;;4990624;28;20895;-45
2022/05/04 05:02:10;;;;;;;17.47;11.20;;;12.90;99.90;;;;;;4992270;28;20472;-45
2022/05/04 05:04:38;;;;;;;26.00;12.47;;;12.80;99.90;;;;;;4992616;28;20439;-45
2022/05/04 05:07:05;;;;;;;19.87;11.63;;;12.60;99.90;;;;;;4990787;28;20459;-45
2022/05/04 05:09:32;;;;;;;12.77;10.23;;;12.70;99.90;;;;;;4991345;28;20669;-45
2022/05/04 05:11:58;;;;;;;11.73;10.37;;;12.80;99.90;;;;;;4991635;28;20441;-45
2022/05/04 05:17:09;;;;;;;24.07;10.50;;;13.10;99.90;;;;;;4991409;28;20551;-47
2022/05/04 05:19:36;;;;;;;14.13;10.70;;;12.90;99.90;;;;;;4990257;28;20482;-45
2022/05/04 05:22:04;;;;;;;11.70;10.50;;;12.90;99.90;;;;;;4991637;28;20436;-45
2022/05/04 05:24:31;;;;;;;14.30;11.00;;;13.20;99.90;;;;;;4991017;28;20451;-47
2022/05/04 05:26:57;;;;;;;16.00;10.13;;;13.20;99.90;;;;;;4991333;28;20458;-45
2022/05/04 05:29:24;;;;;;;21.43;11.10;;;13.20;99.90;;;;;;4990550;28;20461;-45
2022/05/04 05:31:50;;;;;;;22.93;11.53;;;13.20;99.90;;;;;;4990828;28;20831;-46
2022/05/04 05:34:17;;;;;;;14.03;10.67;;;13.80;99.90;;;;;;4991255;28;20436;-46
2022/05/04 05:36:44;;;;;;;13.93;10.33;;;13.50;99.90;;;;;;4990710;28;20459;-47
2022/05/04 05:39:12;;;;;;;15.77;11.10;;;13.40;99.70;;;;;;4990169;28;20996;-45
2022/05/04 05:41:38;;;;;;;16.20;10.73;;;13.50;99.60;;;;;;4990815;28;20913;-45
2022/05/04 05:44:05;;;;;;;14.40;10.43;;;13.70;99.40;;;;;;4990721;28;20951;-45
2022/05/04 05:46:32;;;;;;;12.23;10.20;;;13.50;98.80;;;;;;4990346;28;20445;-46
2022/05/04 05:48:58;;;;;;;17.70;10.37;;;13.60;98.80;;;;;;4989766;28;20464;-46
2022/05/04 05:51:25;;;;;;;17.50;10.60;;;13.90;98.70;;;;;;4989477;28;20456;-45
2022/05/04 05:53:51;;;;;;;15.50;10.70;;;14.10;98.60;;;;;;4990717;28;20444;-45
2022/05/04 05:56:19;;;;;;;20.83;11.30;;;13.40;98.10;;;;;;4991076;28;20477;-45
2022/05/04 05:58:46;;;;;;;18.43;15.17;;;14.00;98.20;;;;;;4990414;28;20433;-46
2022/05/04 06:01:13;;;;;;;14.20;10.50;;;14.00;98.10;;;;;;4991679;28;20446;-45
2022/05/04 06:03:39;;;;;;;14.63;12.10;;;14.20;97.90;;;;;;4991870;28;20433;-44
2022/05/04 06:06:06;;;;;;;15.27;11.87;;;14.20;97.60;;;;;;4989615;28;20449;-44
2022/05/04 06:08:33;;;;;;;21.13;11.60;;;14.50;97.70;;;;;;4991214;28;20445;-46
2022/05/04 06:10:59;;;;;;;22.10;12.60;;;15.00;97.60;;;;;;4991652;28;20444;-44
2022/05/04 06:13:27;;;;;;;15.27;12.40;;;14.60;97.10;;;;;;4990958;28;20437;-45
2022/05/04 06:15:54;;;;;;;14.90;11.47;;;14.90;97.00;;;;;;4991445;28;20481;-44
2022/05/04 06:18:20;;;;;;;17.40;13.30;;;14.50;96.40;;;;;;4991357;28;20795;-45
2022/05/04 06:20:47;;;;;;;14.67;11.60;;;15.20;95.70;;;;;;4990529;28;20801;-46
2022/05/04 06:23:14;;;;;;;16.50;11.90;;;15.20;96.10;;;;;;4990606;28;20449;-47
2022/05/04 06:25:42;;;;;;;15.07;12.20;;;15.30;95.50;;;;;;4991084;28;20433;-45
2022/05/04 06:28:09;;;;;;;14.00;12.20;;;15.80;95.40;;;;;;4990904;28;20437;-46
2022/05/04 06:36:06;;;;;;;17.37;12.77;;;16.10;94.40;;;;;;4990369;28;20487;-44
2022/05/04 06:38:32;;;;;;;21.63;16.20;;;16.00;94.00;;;;;;4990876;28;20434;-45
2022/05/04 06:41:00;;;;;;;15.10;13.50;;;15.80;93.70;;;;;;4990388;28;20443;-45
2022/05/04 06:43:27;;;;;;;22.80;12.90;;;16.00;93.60;;;;;;4990263;28;20456;-46
2022/05/04 06:45:55;;;;;;;13.80;12.27;;;16.30;93.60;;;;;;4989831;28;20438;-46
2022/05/04 06:48:22;;;;;;;17.23;12.10;;;16.30;93.30;;;;;;4989416;28;20954;-46
2022/05/04 06:50:48;;;;;;;17.37;15.67;;;16.30;93.00;;;;;;4989694;28;20457;-45
2022/05/04 06:53:15;;;;;;;18.83;11.93;;;16.30;93.20;;;;;;4989660;28;20449;-45
2022/05/04 06:55:41;;;;;;;14.03;12.03;;;16.00;92.50;;;;;;4989733;28;20969;-46
2022/05/04 06:58:08;;;;;;;14.60;11.83;;;15.80;92.30;;;;;;4989767;28;20947;-45
2022/05/04 07:00:35;;;;;;;18.30;13.27;;;16.20;92.30;;;;;;4989525;28;20928;-46
2022/05/04 07:03:03;;;;;;;15.93;14.23;;;16.60;92.30;;;;;;4989359;28;20451;-46
2022/05/04 07:05:29;;;;;;;17.80;11.97;;;16.50;92.20;;;;;;4989740;28;20438;-45
2022/05/04 07:07:56;;;;;;;21.47;12.97;;;16.70;92.20;;;;;;4989654;28;20474;-47
2022/05/04 07:10:22;;;;;;;13.47;11.53;;;16.70;92.00;;;;;;4988969;28;20458;-45
2022/05/04 07:12:50;;;;;;;17.70;11.80;;;16.20;91.40;;;;;;4989334;28;20803;-46
2022/05/04 07:15:16;;;;;;;18.03;11.10;;;16.60;91.30;;;;;;4989448;28;20545;-46
2022/05/04 07:17:43;;;;;;;12.77;10.30;;;16.60;91.10;;;;;;4989172;28;20732;-46
2022/05/04 07:20:12;;;;;;;12.03;10.70;;;16.80;90.60;;;;;;4989435;28;20474;-47
2022/05/04 07:22:39;;;;;;;14.53;11.80;;;16.90;90.40;;;;;;4987957;28;20883;-46
2022/05/04 07:25:07;;;;;;;15.50;11.23;;;17.30;90.30;;;;;;4989577;28;20936;-45
2022/05/04 07:27:33;;;;;;;12.00;10.07;;;17.10;90.00;;;;;;4988687;28;20435;-45
2022/05/04 07:30:01;;;;;;;14.43;9.63;;;17.00;89.80;;;;;;4989161;28;20465;-45
2022/05/04 07:32:27;;;;;;;12.40;10.07;;;17.50;89.80;;;;;;4989593;28;20445;-46
2022/05/04 07:34:54;;;;;;;13.87;9.93;;;17.10;88.40;;;;;;4991153;28;20454;-45
2022/05/04 07:37:22;;;;;;;16.97;10.00;;;17.10;87.80;;;;;;4992464;28;20439;-45
2022/05/04 07:42:33;;;;;;;15.30;10.67;;;17.30;87.20;;;;;;4991015;28;20442;-45
2022/05/04 07:45:01;;;;;;;15.30;10.20;;;17.10;86.60;;;;;;4992933;28;20998;-46
2022/05/04 07:47:30;;;;;;;13.23;10.90;;;17.60;86.60;;;;;;4992786;28;20755;-45
2022/05/04 07:49:57;;;;;;;14.73;10.37;;;17.40;86.00;;;;;;4990264;28;20851;-46
2022/05/04 07:52:25;;;;;;;12.20;10.43;;;17.80;86.30;;;;;;4992688;28;20465;-46
2022/05/04 07:54:52;;;;;;;12.70;11.37;;;17.20;85.30;;;;;;4993014;28;20447;-46
2022/05/04 07:57:20;;;;;;;14.20;11.33;;;17.10;85.40;;;;;;4993018;28;20531;-46
2022/05/04 08:04:16;;;;;;;12.30;9.60;;;17.10;85.80;;;;;;4991771;28;20552;-45
2022/05/04 08:05:21;;;;;;;13.13;11.33;;;17.00;86.50;;;;;;4992653;28;20856;-45
2022/05/04 08:07:49;;;;;;;16.77;11.43;;;16.80;86.60;;;;;;4991936;28;20496;-45
2022/05/04 08:10:16;;;;;;;12.13;10.93;;;17.00;87.00;;;;;;4992348;28;20469;-45
2022/05/04 08:12:43;;;;;;;13.23;11.50;;;16.70;86.80;;;;;;4991683;28;20439;-46
2022/05/04 08:15:10;;;;;;;16.50;12.00;;;16.60;86.80;;;;;;4991746;28;20454;-46
2022/05/04 08:17:37;;;;;;;13.57;11.00;;;16.50;86.70;;;;;;4992206;28;20486;-45
2022/05/04 08:20:05;;;;;;;17.60;10.63;;;16.80;86.90;;;;;;4992139;28;20481;-44
2022/05/04 08:22:32;;;;;;;13.90;10.63;;;16.90;87.00;;;;;;4991865;28;20468;-45
2022/05/04 08:25:00;;;;;;;11.83;9.60;;;17.00;86.60;;;;;;4992547;28;20435;-45
2022/05/04 08:27:28;;;;;;;18.33;10.80;;;16.80;86.20;;;;;;4991836;28;20458;-46
2022/05/04 08:29:55;;;;;;;11.60;10.10;;;17.30;86.50;;;;;;4992259;28;20467;-45
2022/05/04 08:32:21;;;;;;;14.40;10.37;;;16.50;85.30;;;;;;4992340;28;20443;-45
2022/05/04 08:34:48;;;;;;;10.97;9.00;;;16.80;85.40;;;;;;4991479;28;20435;-46
2022/05/04 08:37:14;;;;;;;16.87;8.77;;;16.60;84.90;;;;;;4992393;28;20482;-46
2022/05/04 08:39:41;;;;;;;13.93;8.70;;;17.20;84.60;;;;;;4991367;28;20459;-46
2022/05/04 08:42:12;;;;;;;13.47;9.40;;;17.10;83.50;;;;;;4991708;28;20499;-46
2022/05/04 08:44:42;;;;;;;14.60;9.43;;;16.90;82.60;;;;;;4991855;28;20452;-44
2022/05/04 08:47:13;;;;;;;13.70;8.63;;;17.10;82.50;;;;;;4991304;28;20511;-45
2022/05/04 08:49:41;;;;;;;13.20;8.13;;;17.80;83.30;;;;;;4991513;28;20463;-45
2022/05/04 08:52:08;;;;;;;9.23;8.17;;;17.20;81.50;;;;;;4992276;28;20559;-45
2022/05/04 08:54:35;;;;;;;9.77;7.97;;;17.60;81.50;;;;;;4989967;28;20460;-45
2022/05/04 08:57:02;;;;;;;14.80;7.67;;;17.00;80.30;;;;;;4991386;28;20479;-44
2022/05/04 08:59:30;;;;;;;11.20;9.30;;;17.40;80.40;;;;;;4990716;28;20471;-45
2022/05/04 09:01:57;;;;;;;8.37;7.37;;;17.40;80.10;;;;;;4991328;28;20447;-45
2022/05/04 09:04:23;;;;;;;11.00;8.00;;;17.30;80.20;;;;;;4990925;28;20442;-45
2022/05/04 09:06:50;;;;;;;18.30;8.23;;;17.40;80.10;;;;;;4991899;28;20436;-45
2022/05/04 09:09:17;;;;;;;10.00;9.00;;;17.30;79.60;;;;;;4990177;28;20544;-46
2022/05/04 09:11:45;;;;;;;9.50;7.90;;;18.20;80.30;;;;;;4990678;28;20447;-46
2022/05/04 09:14:13;;;;;;;12.90;8.47;;;17.90;79.40;;;;;;4990868;28;20436;-45
2022/05/04 09:16:42;;;;;;;14.63;7.80;;;17.70;79.00;;;;;;4990558;28;20488;-44
2022/05/04 09:19:11;;;;;;;12.57;7.00;;;17.60;78.30;;;;;;4988674;28;20489;-47
2022/05/04 09:21:38;;;;;;;7.53;6.40;;;18.10;78.00;;;;;;4989649;28;20491;-45
2022/05/04 09:24:06;;;;;;;15.23;7.20;;;18.00;77.50;;;;;;4990884;28;20444;-45
2022/05/04 09:26:38;;;;;;;11.23;6.80;;;18.00;77.10;;;;;;4990463;28;20471;-46
2022/05/04 09:29:06;;;;;;;8.80;7.10;;;17.80;76.40;;;;;;4990216;28;20812;-45
2022/05/04 09:31:33;;;;;;;7.77;7.00;;;18.60;76.90;;;;;;4990680;28;20499;-46
2022/05/04 09:34:03;;;;;;;12.80;7.10;;;18.30;76.00;;;;;;4990607;28;21082;-46
2022/05/04 09:36:32;;;;;;;12.63;7.33;;;18.50;75.70;;;;;;4990479;28;20560;-46
2022/05/04 09:47:20;;;;;;;8.13;6.40;;;19.30;71.60;;;;;;4990161;28;20482;-46
2022/05/04 09:49:49;;;;;;;6.67;6.03;;;19.80;71.20;;;;;;4989710;28;20557;-46
2022/05/04 09:52:21;;;;;;;10.93;6.27;;;19.90;70.80;;;;;;4990128;28;20802;-45
2022/05/04 09:54:48;;;;;;;23.53;7.60;;;19.80;70.10;;;;;;4990283;28;20434;-46
2022/05/04 09:57:14;;;;;;;8.77;7.10;;;20.30;69.90;;;;;;4988850;28;20470;-46
2022/05/04 09:59:43;;;;;;;7.23;6.03;;;20.30;68.90;;;;;;4989782;28;20455;-45
2022/05/04 10:02:10;;;;;;;7.80;6.60;;;19.90;68.20;;;;;;4989197;28;20457;-47
2022/05/04 10:04:37;;;;;;;8.97;7.40;;;20.20;67.70;;;;;;4988741;28;20548;-46
2022/05/04 10:07:05;;;;;;;8.00;6.73;;;20.40;67.10;;;;;;4990553;28;20502;-46
2022/05/04 10:09:32;;;;;;;7.47;4.90;;;20.40;66.80;;;;;;4988467;28;20497;-46
2022/05/04 10:12:00;;;;;;;6.63;5.30;;;20.40;66.80;;;;;;4988608;28;20483;-47
2022/05/04 10:14:28;;;;;;;9.17;6.10;;;20.40;66.00;;;;;;4989894;28;20444;-45
2022/05/04 10:16:59;;;;;;;7.43;4.90;;;20.60;65.70;;;;;;4989577;28;20486;-47
2022/05/04 10:19:29;;;;;;;9.70;5.40;;;20.60;65.20;;;;;;4989764;28;20479;-44
2022/05/04 10:21:59;;;;;;;6.63;5.60;;;20.30;64.10;;;;;;4989569;28;20489;-42
2022/05/04 10:24:30;;;;;;;8.13;6.30;;;20.70;64.40;;;;;;4989805;28;20945;-43
2022/05/04 10:27:02;;;;;;;13.50;6.00;;;20.80;64.10;;;;;;4989416;28;20549;-43
2022/05/04 10:32:33;;;;;;;8.80;6.00;;;20.80;63.30;;;;;;4954334;28;20439;-43
2022/05/04 10:35:28;;;;;;;10.60;6.50;;;20.80;62.90;;;;;;4989355;28;20939;-44
2022/05/04 10:38:11;;;;;;;8.37;6.00;;;21.00;62.10;;;;;;4987913;28;20575;-43
2022/05/04 10:40:43;;;;;;;11.20;6.13;;;21.20;62.00;;;;;;4988837;28;20465;-45
2022/05/04 10:43:12;;;;;;;8.10;7.13;;;20.90;61.90;;;;;;4988107;28;20526;-44
2022/05/04 10:45:40;;;;;;;12.50;5.80;;;21.00;61.40;;;;;;4989092;28;20463;-44
2022/05/04 10:48:23;;;;;;;7.73;5.63;;;20.90;61.10;;;;;;4989113;28;20848;-46
2022/05/04 10:50:54;;;;;;;9.93;7.37;;;21.20;60.80;;;;;;4988503;28;20494;-44
2022/05/04 10:53:22;;;;;;;9.10;5.83;;;21.20;61.00;;;;;;4989368;28;20444;-44
2022/05/04 10:56:02;;;;;;;6.67;5.97;;;21.00;60.60;;;;;;4989416;28;20947;-43
2022/05/04 10:58:33;;;;;;;9.07;5.80;;;21.40;60.60;;;;;;4989130;28;20436;-43
2022/05/04 11:01:10;;;;;;;12.87;6.73;;;21.00;60.20;;;;;;4988127;28;20455;-44
2022/05/04 11:03:48;;;;;;;10.60;6.13;;;21.00;60.10;;;;;;4988700;28;20527;-42
2022/05/04 11:06:23;;;;;;;7.83;5.53;;;21.10;60.50;;;;;;4988881;28;20444;-43
2022/05/04 11:08:51;;;;;;;7.60;5.70;;;21.10;60.60;;;;;;4989608;28;20470;-43
2022/05/04 11:11:22;;;;;;;11.67;5.90;;;20.80;60.50;;;;;;4992807;28;20933;-42
2022/05/04 11:13:49;;;;;;;7.93;6.70;;;21.00;61.00;;;;;;4992961;28;20567;-43
2022/05/04 11:16:16;;;;;;;7.27;6.13;;;20.60;60.70;;;;;;4992218;28;20476;-43
2022/05/04 11:18:42;;;;;;;10.07;6.87;;;21.00;61.10;;;;;;4992113;28;20436;-42
2022/05/04 11:21:12;;;;;;;8.80;5.40;;;20.80;61.00;;;;;;4992105;28;20448;-44
2022/05/04 11:23:39;;;;;;;12.07;7.20;;;20.80;60.90;;;;;;4992541;28;20931;-42
2022/05/04 11:26:06;;;;;;;8.50;6.50;;;20.60;60.60;;;;;;4993447;28;20503;-42
2022/05/04 11:28:34;;;;;;;14.23;6.67;;;21.20;61.10;;;;;;4992502;28;20472;-42
2022/05/04 11:31:01;;;;;;;8.23;6.30;;;20.90;60.50;;;;;;4993291;28;20450;-42
2022/05/04 11:33:27;;;;;;;9.30;7.23;;;20.70;60.10;;;;;;4992867;28;20444;-43
2022/05/04 11:35:55;;;;;;;7.97;7.00;;;21.20;60.20;;;;;;4990976;28;20463;-44
2022/05/04 11:38:23;;;;;;;7.10;6.10;;;21.40;60.10;;;;;;4991631;28;20543;-45
2022/05/04 11:40:51;;;;;;;6.50;5.90;;;21.60;60.00;;;;;;4992414;28;20469;-44
2022/05/04 11:43:26;;;;;;;10.03;7.67;;;21.30;59.70;;;;;;4992436;28;20528;-47
2022/05/04 11:45:55;;;;;;;10.20;6.70;;;21.60;59.50;;;;;;4991760;28;20525;-43
2022/05/04 11:48:22;;;;;;;7.10;6.30;;;21.60;59.60;;;;;;4991639;28;20489;-47
2022/05/04 11:50:49;;;;;;;7.23;6.50;;;21.30;59.50;;;;;;4991900;28;20457;-43
2022/05/04 11:53:16;;;;;;;6.93;6.23;;;21.30;59.50;;;;;;4991260;28;20459;-45
2022/05/04 11:55:42;;;;;;;5.70;5.20;;;21.10;59.30;;;;;;4991735;28;20451;-44
2022/05/04 11:58:10;;;;;;;7.70;6.13;;;21.50;59.60;;;;;;4990628;28;20484;-43
2022/05/04 12:00:37;;;;;;;6.87;5.80;;;21.50;59.50;;;;;;4991094;28;20449;-43
2022/05/04 12:03:06;;;;;;;9.10;6.13;;;21.80;59.30;;;;;;4991366;28;20436;-44
2022/05/04 12:05:35;;;;;;;7.33;6.63;;;21.60;58.90;;;;;;4992056;28;20445;-44
2022/05/04 12:08:04;;;;;;;7.53;6.73;;;21.50;58.70;;;;;;4991841;28;20434;-43
2022/05/04 12:10:31;;;;;;;10.23;6.80;;;21.60;58.70;;;;;;4991261;28;20457;-42
2022/05/04 12:13:00;;;;;;;6.87;6.17;;;21.80;58.60;;;;;;4991901;28;20515;-45
2022/05/04 12:15:28;;;;;;;12.10;6.10;;;21.90;58.60;;;;;;4991714;28;20437;-44
2022/05/04 12:17:59;;;;;;;8.63;6.07;;;21.80;58.20;;;;;;4991443;28;20487;-45
2022/05/04 12:20:27;;;;;;;8.77;6.27;;;21.90;58.00;;;;;;4990227;28;20477;-43
2022/05/04 12:22:55;;;;;;;8.70;5.60;;;21.70;57.80;;;;;;4991378;28;20811;-43
2022/05/04 12:25:23;;;;;;;10.00;7.10;;;21.90;57.80;;;;;;4991346;28;20442;-43
2022/05/04 12:27:50;;;;;;;7.77;6.20;;;21.60;57.40;;;;;;4990801;28;20443;-44
2022/05/04 12:33:11;;;;;;;7.87;6.07;;;22.00;57.20;;;;;;4991965;28;20442;-41
2022/05/04 12:35:42;;;;;;;11.73;7.17;;;22.10;57.00;;;;;;4991185;28;20835;-42
2022/05/04 12:38:09;;;;;;;9.73;6.10;;;22.20;56.70;;;;;;4991267;28;20477;-44
2022/05/04 12:40:36;;;;;;;7.00;6.27;;;21.90;56.30;;;;;;4990981;28;20456;-43
2022/05/04 12:43:04;;;;;;;7.17;6.30;;;22.20;56.20;;;;;;4990972;28;20527;-45
2022/05/04 12:45:33;;;;;;;6.70;6.00;;;21.90;55.90;;;;;;4991366;28;20439;-44
2022/05/04 12:47:59;;;;;;;8.67;5.33;;;21.80;55.90;;;;;;4991072;28;20440;-42
2022/05/04 12:50:28;;;;;;;10.20;5.77;;;22.40;56.20;;;;;;4990520;28;20458;-45
2022/05/04 12:52:57;;;;;;;8.60;6.87;;;22.30;55.90;;;;;;4991118;28;20444;-44
2022/05/04 12:56:45;;;;;;;9.33;6.40;;;22.40;55.90;;;;;;4991734;28;20438;-44
2022/05/04 12:58:13;;;;;;;11.40;7.43;;;22.30;55.80;;;;;;4991100;28;20481;-43
2022/05/04 13:00:40;;;;;;;7.00;6.30;;;22.40;56.00;;;;;;4990924;28;20460;-45
2022/05/04 13:03:09;;;;;;;6.33;5.73;;;22.20;55.80;;;;;;4991766;28;20449;-43
2022/05/04 13:05:35;;;;;;;7.67;6.80;;;22.40;55.70;;;;;;4991457;28;20492;-44
2022/05/04 13:08:03;;;;;;;8.87;6.20;;;22.00;55.40;;;;;;4991936;28;20442;-43
2022/05/04 13:10:31;;;;;;;6.17;5.50;;;22.30;55.10;;;;;;4991311;28;20533;-43
2022/05/04 13:12:59;;;;;;;8.03;6.10;;;22.30;55.30;;;;;;4991867;28;20447;-44
2022/05/04 13:15:26;;;;;;;10.20;9.20;;;22.30;55.40;;;;;;4991878;28;20837;-44
2022/05/04 13:17:53;;;;;;;9.20;6.60;;;22.40;55.50;;;;;;4992201;28;20538;-43
2022/05/04 13:20:20;;;;;;;6.80;6.20;;;22.60;55.40;;;;;;4990854;28;20467;-45
2022/05/04 13:22:46;;;;;;;8.20;5.63;;;22.40;55.00;;;;;;4990841;28;20443;-42